createdAt,value
2019-01-24T00:00:58.068Z,19.80
2019-01-24T00:03:24.024Z,19.70
2019-01-24T00:05:49.978Z,19.70
2019-01-24T00:08:15.952Z,19.60
2019-01-24T00:10:41.908Z,19.70
2019-01-24T00:13:07.844Z,19.60
2019-01-24T00:15:33.790Z,19.60
2019-01-24T00:17:59.740Z,19.60
2019-01-24T00:20:25.729Z,19.60
2019-01-24T00:22:51.672Z,19.60
2019-01-24T00:25:17.657Z,19.60
2019-01-24T00:27:43.619Z,19.60
2019-01-24T00:30:10.577Z,19.50
2019-01-24T00:32:36.761Z,19.50
2019-01-24T00:35:02.804Z,19.50
2019-01-24T00:37:28.785Z,19.50
2019-01-24T00:39:54.750Z,19.50
2019-01-24T00:42:20.759Z,19.50
2019-01-24T00:44:46.705Z,19.60
2019-01-24T00:47:12.654Z,19.50
2019-01-24T00:49:38.595Z,19.60
2019-01-24T00:52:04.588Z,19.60
2019-01-24T00:54:30.526Z,19.60
2019-01-24T00:56:56.487Z,19.70
2019-01-24T00:59:22.431Z,19.70
2019-01-24T01:01:48.416Z,19.60
2019-01-24T01:04:14.481Z,19.70
2019-01-24T01:06:40.537Z,19.60
2019-01-24T01:09:06.499Z,19.60
2019-01-24T01:11:32.458Z,19.70
2019-01-24T01:13:58.420Z,19.70
2019-01-24T01:16:24.413Z,19.60
2019-01-24T01:18:50.365Z,19.60
2019-01-24T01:21:16.311Z,19.60
2019-01-24T01:23:42.263Z,19.60
2019-01-24T01:26:08.209Z,19.60
2019-01-24T01:28:34.197Z,19.60
2019-01-24T01:31:00.129Z,19.60
2019-01-24T01:33:26.088Z,19.50
2019-01-24T01:35:52.063Z,19.50
2019-01-24T01:38:18.033Z,19.50
2019-01-24T01:40:43.985Z,19.50
2019-01-24T01:43:09.934Z,19.50
2019-01-24T01:45:35.982Z,19.50
2019-01-24T01:48:01.921Z,19.50
2019-01-24T01:50:27.886Z,19.40
2019-01-24T01:52:53.929Z,19.40
2019-01-24T01:55:19.871Z,19.40
2019-01-24T01:57:45.910Z,19.40
2019-01-24T02:00:11.873Z,19.40
2019-01-24T02:02:37.837Z,19.40
2019-01-24T02:05:03.908Z,19.30
2019-01-24T02:07:30.381Z,19.30
2019-01-24T02:09:56.321Z,19.30
2019-01-24T02:12:22.299Z,19.30
2019-01-24T02:14:48.252Z,19.20
2019-01-24T02:17:14.338Z,19.20
2019-01-24T02:19:40.293Z,19.20
2019-01-24T02:22:06.259Z,19.30
2019-01-24T02:24:32.318Z,19.30
2019-01-24T02:26:58.281Z,19.30
2019-01-24T02:29:24.255Z,19.30
2019-01-24T02:31:50.217Z,19.40
2019-01-24T02:34:16.256Z,19.40
2019-01-24T02:36:42.222Z,19.40
2019-01-24T02:39:08.174Z,19.40
2019-01-24T02:41:34.121Z,19.40
2019-01-24T02:44:00.069Z,19.50
2019-01-24T02:46:26.038Z,19.40
2019-01-24T02:48:52.016Z,19.50
2019-01-24T02:51:17.940Z,19.50
2019-01-24T02:53:43.900Z,19.50
2019-01-24T02:56:09.833Z,19.50
2019-01-24T02:58:35.791Z,19.50
2019-01-24T03:01:01.730Z,19.50
2019-01-24T03:03:27.668Z,19.40
2019-01-24T03:05:53.612Z,19.50
2019-01-24T03:08:19.579Z,19.40
2019-01-24T03:10:45.531Z,19.40
2019-01-24T03:13:11.593Z,19.40
2019-01-24T03:15:37.631Z,19.40
2019-01-24T03:18:03.602Z,19.40
2019-01-24T03:20:29.547Z,19.40
2019-01-24T03:22:55.506Z,19.40
2019-01-24T03:25:21.462Z,19.40
2019-01-24T03:27:47.430Z,19.40
2019-01-24T03:30:13.506Z,19.40
2019-01-24T03:32:39.572Z,19.40
2019-01-24T03:35:05.731Z,19.40
2019-01-24T03:37:31.772Z,19.40
2019-01-24T03:39:57.740Z,19.40
2019-01-24T03:42:23.687Z,19.40
2019-01-24T03:44:49.624Z,19.40
2019-01-24T03:47:15.579Z,19.30
2019-01-24T03:49:41.599Z,19.30
2019-01-24T03:52:07.570Z,19.30
2019-01-24T03:54:33.512Z,19.30
2019-01-24T03:56:59.438Z,19.30
2019-01-24T03:59:25.374Z,19.30
2019-01-24T04:01:51.319Z,19.30
2019-01-24T04:04:17.280Z,19.30
2019-01-24T04:06:43.236Z,19.30
2019-01-24T04:09:09.206Z,19.30
2019-01-24T04:11:35.269Z,19.30
2019-01-24T04:14:01.223Z,19.30
2019-01-24T04:16:27.271Z,19.30
2019-01-24T04:18:53.257Z,19.30
2019-01-24T04:21:19.211Z,19.20
2019-01-24T04:23:45.181Z,19.20
2019-01-24T04:26:11.233Z,19.20
2019-01-24T04:28:37.202Z,19.20
2019-01-24T04:31:03.153Z,19.20
2019-01-24T04:33:29.102Z,19.20
2019-01-24T04:35:55.066Z,19.20
2019-01-24T04:38:21.030Z,19.20
2019-01-24T04:40:46.995Z,19.20
2019-01-24T04:43:12.964Z,19.20
2019-01-24T04:45:38.911Z,19.20
2019-01-24T04:48:05.069Z,19.20
2019-01-24T04:50:31.021Z,19.10
2019-01-24T04:52:56.987Z,19.10
2019-01-24T04:55:23.190Z,19.10
2019-01-24T04:57:49.119Z,19.10
2019-01-24T05:00:15.066Z,19.10
2019-01-24T05:02:41.034Z,19.10
2019-01-24T05:05:07.098Z,19.10
2019-01-24T05:07:33.087Z,19.10
2019-01-24T05:09:59.017Z,19.10
2019-01-24T05:12:25.034Z,19.10
2019-01-24T05:14:51.094Z,19.10
2019-01-24T05:17:17.059Z,19.10
2019-01-24T05:19:43.110Z,19.10
2019-01-24T05:22:09.072Z,19.10
2019-01-24T05:24:35.047Z,19.00
2019-01-24T05:27:01.016Z,19.00
2019-01-24T05:29:27.083Z,19.00
2019-01-24T05:31:53.041Z,19.00
2019-01-24T05:34:18.995Z,19.10
2019-01-24T05:36:44.960Z,19.10
2019-01-24T05:39:11.009Z,19.10
2019-01-24T05:41:36.950Z,19.10
2019-01-24T05:44:02.881Z,19.10
2019-01-24T05:46:28.853Z,19.20
2019-01-24T05:48:54.812Z,19.20
2019-01-24T05:51:20.791Z,19.20
2019-01-24T05:53:46.818Z,19.20
2019-01-24T05:56:12.780Z,19.20
2019-01-24T05:58:38.743Z,19.20
2019-01-24T06:01:06.631Z,19.20
2019-01-24T06:03:32.565Z,19.20
2019-01-24T06:05:58.512Z,19.30
2019-01-24T06:08:24.489Z,19.30
2019-01-24T06:10:50.525Z,19.30
2019-01-24T06:13:16.475Z,19.20
2019-01-24T06:15:42.420Z,19.30
2019-01-24T06:18:08.389Z,19.20
2019-01-24T06:20:34.314Z,19.30
2019-01-24T06:23:00.267Z,19.30
2019-01-24T06:25:26.213Z,19.30
2019-01-24T06:27:52.158Z,19.30
2019-01-24T06:30:18.112Z,19.30
2019-01-24T06:32:44.070Z,19.40
2019-01-24T06:35:10.020Z,19.40
2019-01-24T06:37:35.954Z,19.30
2019-01-24T06:40:01.910Z,19.30
2019-01-24T06:42:27.840Z,19.30
2019-01-24T06:44:53.781Z,19.30
2019-01-24T06:47:19.730Z,19.30
2019-01-24T06:49:45.703Z,19.40
2019-01-24T06:52:11.637Z,19.40
2019-01-24T06:54:37.731Z,19.40
2019-01-24T06:57:03.691Z,19.40
2019-01-24T06:59:29.649Z,19.40
2019-01-24T07:01:55.612Z,19.50
2019-01-24T07:04:21.638Z,19.50
2019-01-24T07:06:47.612Z,19.50
2019-01-24T07:09:13.689Z,19.50
2019-01-24T07:11:39.660Z,19.50
2019-01-24T07:14:05.596Z,19.50
2019-01-24T07:16:31.549Z,19.50
2019-01-24T07:18:57.490Z,19.40
2019-01-24T07:21:23.462Z,19.50
2019-01-24T07:23:49.420Z,19.40
2019-01-24T07:26:15.351Z,19.40
2019-01-24T07:28:41.328Z,19.40
2019-01-24T07:31:07.375Z,19.40
2019-01-24T07:33:33.336Z,19.40
2019-01-24T07:36:02.261Z,19.40
2019-01-24T07:38:27.154Z,19.40
2019-01-24T07:40:53.125Z,19.40
2019-01-24T07:43:19.186Z,19.30
2019-01-24T07:45:45.210Z,19.30
2019-01-24T07:48:11.169Z,19.30
2019-01-24T07:50:37.123Z,19.30
2019-01-24T07:53:03.086Z,19.30
2019-01-24T07:55:29.048Z,19.20
2019-01-24T07:57:55.022Z,19.20
2019-01-24T08:00:20.969Z,19.20
2019-01-24T08:02:46.920Z,19.20
2019-01-24T08:05:12.852Z,19.20
2019-01-24T08:07:38.782Z,19.20
2019-01-24T08:10:04.730Z,19.20
2019-01-24T08:12:30.662Z,19.20
2019-01-24T08:14:56.611Z,19.10
2019-01-24T08:17:22.557Z,19.10
2019-01-24T08:19:48.512Z,19.10
2019-01-24T08:22:14.456Z,19.10
2019-01-24T08:24:40.412Z,19.10
2019-01-24T08:27:06.389Z,19.20
2019-01-24T08:29:33.197Z,19.20
2019-01-24T08:31:59.156Z,19.10
2019-01-24T08:34:25.106Z,19.20
2019-01-24T08:36:51.091Z,19.20
2019-01-24T08:39:17.281Z,19.20
2019-01-24T08:41:43.246Z,19.20
2019-01-24T08:44:09.274Z,19.20
2019-01-24T08:46:35.240Z,19.20
2019-01-24T08:49:01.340Z,19.10
2019-01-24T08:51:27.375Z,19.10
2019-01-24T08:53:53.348Z,19.20
2019-01-24T08:56:19.302Z,19.20
2019-01-24T08:58:45.250Z,19.20
2019-01-24T09:01:11.213Z,19.10
2019-01-24T09:03:37.185Z,19.10
2019-01-24T09:06:03.264Z,19.10
2019-01-24T09:08:29.231Z,19.10
2019-01-24T09:10:55.220Z,19.10
2019-01-24T09:13:21.182Z,19.10
2019-01-24T09:15:47.124Z,19.10
2019-01-24T09:18:13.072Z,19.00
2019-01-24T09:20:39.067Z,19.00
2019-01-24T09:23:05.120Z,19.00
2019-01-24T09:25:31.061Z,19.00
2019-01-24T09:27:57.064Z,19.00
2019-01-24T09:30:22.994Z,19.00
2019-01-24T09:32:48.953Z,19.00
2019-01-24T09:35:14.899Z,19.00
2019-01-24T09:37:40.853Z,19.00
2019-01-24T09:40:06.830Z,18.90
2019-01-24T09:42:32.800Z,18.90
2019-01-24T09:44:58.769Z,18.90
2019-01-24T09:47:24.741Z,18.90
2019-01-24T09:49:50.711Z,18.90
2019-01-24T09:52:16.664Z,18.90
2019-01-24T09:54:42.619Z,18.90
2019-01-24T09:57:08.585Z,18.90
2019-01-24T09:59:34.691Z,18.80
2019-01-24T10:02:00.744Z,18.90
2019-01-24T10:04:26.817Z,18.90
2019-01-24T10:06:52.761Z,18.90
2019-01-24T10:09:18.699Z,19.00
2019-01-24T10:11:44.640Z,19.00
2019-01-24T10:14:10.589Z,19.00
2019-01-24T10:16:36.551Z,19.10
2019-01-24T10:19:02.525Z,19.10
2019-01-24T10:21:28.594Z,19.20
2019-01-24T10:23:54.627Z,19.20
2019-01-24T10:26:20.615Z,19.20
2019-01-24T10:28:46.662Z,19.20
2019-01-24T10:31:12.617Z,19.20
2019-01-24T10:33:38.563Z,19.20
2019-01-24T10:36:04.527Z,19.20
2019-01-24T10:38:30.481Z,19.10
2019-01-24T10:40:56.469Z,19.10
2019-01-24T10:43:22.441Z,19.10
2019-01-24T10:45:48.486Z,19.10
2019-01-24T10:48:14.428Z,19.10
2019-01-24T10:50:40.378Z,19.10
2019-01-24T10:53:06.325Z,19.00
2019-01-24T10:55:32.251Z,19.00
2019-01-24T10:57:58.215Z,19.00
2019-01-24T11:00:24.153Z,19.00
2019-01-24T11:02:50.099Z,19.00
2019-01-24T11:05:16.055Z,19.00
2019-01-24T11:07:42.105Z,19.00
2019-01-24T11:10:08.049Z,19.00
2019-01-24T11:12:33.978Z,18.90
2019-01-24T11:14:59.928Z,18.90
2019-01-24T11:17:25.890Z,18.90
2019-01-24T11:19:51.833Z,18.90
2019-01-24T11:22:17.783Z,18.90
2019-01-24T11:24:43.779Z,18.90
2019-01-24T11:27:09.804Z,18.90
2019-01-24T11:29:35.770Z,19.00
2019-01-24T11:32:01.719Z,18.90
2019-01-24T11:34:27.794Z,19.00
2019-01-24T11:36:57.152Z,19.00
2019-01-24T11:39:21.611Z,19.00
2019-01-24T11:41:47.629Z,18.90
2019-01-24T11:44:13.653Z,19.00
2019-01-24T11:46:39.622Z,19.00
2019-01-24T11:49:05.576Z,19.00
2019-01-24T11:51:31.556Z,18.90
2019-01-24T11:53:57.524Z,18.90
2019-01-24T11:56:23.531Z,19.00
2019-01-24T11:58:49.479Z,19.00
2019-01-24T12:01:15.433Z,19.00
2019-01-24T12:03:41.403Z,19.00
2019-01-24T12:06:07.383Z,19.00
2019-01-24T12:08:33.466Z,18.90
2019-01-24T12:10:59.442Z,18.90
2019-01-24T12:13:25.374Z,18.90
2019-01-24T12:15:51.333Z,18.90
2019-01-24T12:18:17.270Z,18.90
2019-01-24T12:20:43.202Z,18.80
2019-01-24T12:23:10.046Z,18.80
2019-01-24T12:25:36.012Z,18.80
2019-01-24T12:28:01.982Z,18.80
2019-01-24T12:30:27.927Z,18.80
2019-01-24T12:32:53.860Z,18.80
2019-01-24T12:35:19.848Z,18.80
2019-01-24T12:37:45.801Z,18.80
2019-01-24T12:40:11.752Z,18.80
2019-01-24T12:42:37.715Z,18.90
2019-01-24T12:45:03.689Z,18.90
2019-01-24T12:47:29.639Z,18.90
2019-01-24T12:49:55.645Z,18.90
2019-01-24T12:52:21.613Z,18.90
2019-01-24T12:54:47.602Z,19.00
2019-01-24T12:57:13.602Z,19.00
2019-01-24T12:59:39.618Z,19.00
2019-01-24T13:02:05.571Z,19.00
2019-01-24T13:04:31.512Z,19.00
2019-01-24T13:06:57.486Z,19.10
2019-01-24T13:09:23.480Z,19.00
2019-01-24T13:11:49.461Z,19.00
2019-01-24T13:14:15.491Z,19.00
2019-01-24T13:16:41.481Z,19.00
2019-01-24T13:19:07.428Z,19.00
2019-01-24T13:21:33.399Z,19.00
2019-01-24T13:23:59.384Z,19.00
2019-01-24T13:26:25.412Z,19.00
2019-01-24T13:28:51.368Z,18.90
2019-01-24T13:31:17.312Z,19.00
2019-01-24T13:33:43.256Z,18.90
2019-01-24T13:36:09.192Z,19.00
2019-01-24T13:38:35.246Z,19.00
2019-01-24T13:41:01.195Z,19.00
2019-01-24T13:43:27.141Z,19.00
2019-01-24T13:45:53.089Z,19.00
2019-01-24T13:48:19.044Z,18.90
2019-01-24T13:50:44.983Z,18.90
2019-01-24T13:53:10.946Z,18.90
2019-01-24T13:55:36.914Z,18.90
2019-01-24T13:58:02.946Z,18.90
2019-01-24T14:00:28.894Z,18.90
2019-01-24T14:02:54.816Z,18.80
2019-01-24T14:05:20.729Z,18.80
2019-01-24T14:07:46.693Z,18.80
2019-01-24T14:10:12.672Z,18.80
2019-01-24T14:12:38.738Z,18.80
2019-01-24T14:15:04.678Z,18.80
2019-01-24T14:17:30.643Z,18.80
2019-01-24T14:19:56.605Z,18.80
2019-01-24T14:22:22.646Z,18.80
2019-01-24T14:24:48.626Z,18.80
2019-01-24T14:27:15.364Z,18.80
2019-01-24T14:29:41.441Z,18.80
2019-01-24T14:32:07.379Z,18.80
2019-01-24T14:34:33.297Z,18.80
2019-01-24T14:36:59.217Z,18.80
2019-01-24T14:39:25.134Z,18.90
2019-01-24T14:41:51.047Z,18.90
2019-01-24T14:44:16.980Z,18.90
2019-01-24T14:46:42.902Z,18.90
2019-01-24T14:49:08.915Z,18.90
2019-01-24T14:51:34.824Z,18.90
2019-01-24T14:54:00.748Z,18.90
2019-01-24T14:56:26.696Z,18.90
2019-01-24T14:58:52.632Z,18.90
2019-01-24T15:01:18.615Z,18.80
2019-01-24T15:03:44.589Z,18.90
2019-01-24T15:06:10.563Z,18.80
2019-01-24T15:08:36.506Z,18.80
2019-01-24T15:11:02.481Z,18.90
2019-01-24T15:13:28.422Z,18.90
2019-01-24T15:15:54.370Z,18.90
2019-01-24T15:18:20.298Z,18.90
2019-01-24T15:20:46.220Z,18.90
2019-01-24T15:23:12.129Z,19.00
2019-01-24T15:25:38.057Z,19.00
2019-01-24T15:28:03.977Z,19.10
2019-01-24T15:30:29.911Z,19.10
2019-01-24T15:32:55.900Z,19.10
2019-01-24T15:35:21.854Z,19.10
2019-01-24T15:37:54.057Z,19.10
2019-01-24T15:40:15.776Z,19.10
2019-01-24T15:42:41.712Z,19.10
2019-01-24T15:45:07.793Z,19.20
2019-01-24T15:47:33.843Z,19.20
2019-01-24T15:49:59.809Z,19.20
2019-01-24T15:52:25.745Z,19.20
2019-01-24T15:54:51.696Z,19.20
2019-01-24T15:57:17.667Z,19.20
2019-01-24T15:59:43.741Z,19.20
2019-01-24T16:02:09.737Z,19.20
2019-01-24T16:04:35.712Z,19.30
2019-01-24T16:07:01.671Z,19.20
2019-01-24T16:09:27.636Z,19.20
2019-01-24T16:11:53.606Z,19.20
2019-01-24T16:14:19.584Z,19.30
2019-01-24T16:16:45.529Z,19.30
2019-01-24T16:19:11.464Z,19.30
2019-01-24T16:21:37.421Z,19.40
2019-01-24T16:24:03.379Z,19.60
2019-01-24T16:26:29.408Z,19.70
2019-01-24T16:28:55.373Z,19.80
2019-01-24T16:31:21.318Z,19.90
2019-01-24T16:33:47.280Z,20.00
2019-01-24T16:36:13.226Z,20.10
2019-01-24T16:38:39.162Z,20.10
2019-01-24T16:41:05.124Z,20.20
2019-01-24T16:43:31.066Z,20.30
2019-01-24T16:45:57.024Z,20.40
2019-01-24T16:48:23.074Z,20.40
2019-01-24T16:50:49.069Z,20.40
2019-01-24T16:53:15.050Z,20.40
2019-01-24T16:55:40.979Z,20.50
2019-01-24T16:58:06.962Z,20.50
2019-01-24T17:00:33.004Z,20.60
2019-01-24T17:02:59.056Z,20.60
2019-01-24T17:05:25.098Z,20.70
2019-01-24T17:07:51.088Z,20.70
2019-01-24T17:10:17.043Z,20.70
2019-01-24T17:12:43.014Z,20.70
2019-01-24T17:15:08.992Z,20.70
2019-01-24T17:17:35.059Z,20.70
2019-01-24T17:20:01.029Z,20.70
2019-01-24T17:22:26.969Z,20.60
2019-01-24T17:24:52.930Z,20.60
2019-01-24T17:27:18.892Z,20.70
2019-01-24T17:29:46.055Z,20.70
2019-01-24T17:32:11.989Z,20.70
2019-01-24T17:34:38.063Z,20.70
2019-01-24T17:37:04.108Z,20.80
2019-01-24T17:39:30.092Z,20.80
2019-01-24T17:41:56.049Z,20.80
2019-01-24T17:44:22.020Z,20.80
2019-01-24T17:46:47.980Z,20.80
2019-01-24T17:49:13.938Z,20.90
2019-01-24T17:51:39.944Z,20.90
2019-01-24T17:54:05.990Z,20.90
2019-01-24T17:56:31.930Z,21.00
2019-01-24T17:58:57.897Z,21.00
2019-01-24T18:01:23.928Z,21.10
2019-01-24T18:03:49.982Z,21.00
2019-01-24T18:06:15.965Z,21.00
2019-01-24T18:08:42.026Z,21.00
2019-01-24T18:11:08.001Z,21.10
2019-01-24T18:13:34.073Z,21.10
2019-01-24T18:16:00.044Z,21.20
2019-01-24T18:18:26.004Z,21.10
2019-01-24T18:20:51.976Z,21.10
2019-01-24T18:23:17.923Z,21.10
2019-01-24T18:25:43.871Z,21.20
2019-01-24T18:28:09.827Z,21.30
2019-01-24T18:30:36.862Z,21.20
2019-01-24T18:33:02.972Z,21.30
2019-01-24T18:35:28.908Z,21.20
2019-01-24T18:37:54.872Z,21.20
2019-01-24T18:40:20.808Z,21.20
2019-01-24T18:42:46.837Z,21.20
2019-01-24T18:45:12.898Z,21.20
2019-01-24T18:47:38.856Z,21.30
2019-01-24T18:50:04.796Z,21.30
2019-01-24T18:52:30.784Z,21.30
2019-01-24T18:54:56.753Z,21.30
2019-01-24T18:57:22.718Z,21.30
2019-01-24T18:59:48.775Z,21.30
2019-01-24T19:02:14.835Z,21.30
2019-01-24T19:04:40.794Z,21.30
2019-01-24T19:07:06.762Z,21.40
2019-01-24T19:09:32.713Z,21.40
2019-01-24T19:11:58.658Z,21.40
2019-01-24T19:14:24.600Z,21.40
2019-01-24T19:16:50.603Z,21.50
2019-01-24T19:19:16.649Z,21.50
2019-01-24T19:21:43.127Z,21.50
2019-01-24T19:24:09.311Z,21.60
2019-01-24T19:26:35.369Z,21.60
2019-01-24T19:29:01.350Z,21.60
2019-01-24T19:31:27.311Z,21.60
2019-01-24T19:33:53.298Z,21.60
2019-01-24T19:36:20.780Z,21.60
2019-01-24T19:38:53.021Z,21.70
2019-01-24T19:41:15.179Z,21.80
2019-01-24T19:43:41.226Z,21.80
2019-01-24T19:46:07.169Z,21.80
2019-01-24T19:48:33.137Z,21.70
2019-01-24T19:50:59.256Z,21.70
2019-01-24T19:53:25.283Z,21.60
2019-01-24T19:55:51.242Z,21.50
2019-01-24T19:58:17.201Z,21.40
2019-01-24T20:00:43.128Z,21.40
2019-01-24T20:03:09.151Z,21.30
2019-01-24T20:05:35.181Z,21.30
2019-01-24T20:08:01.161Z,21.20
2019-01-24T20:10:27.104Z,21.30
2019-01-24T20:12:53.093Z,21.30
2019-01-24T20:15:19.043Z,21.40
2019-01-24T20:17:45.003Z,21.50
2019-01-24T20:20:10.983Z,21.50
2019-01-24T20:22:36.979Z,21.70
2019-01-24T20:25:03.008Z,21.70
2019-01-24T20:27:29.045Z,21.80
2019-01-24T20:29:55.105Z,21.80
2019-01-24T20:32:21.074Z,21.80
2019-01-24T20:34:47.154Z,21.90
2019-01-24T20:37:13.111Z,21.90
2019-01-24T20:39:39.089Z,22.00
2019-01-24T20:42:05.044Z,22.00
2019-01-24T20:44:31.127Z,22.00
2019-01-24T20:46:57.167Z,22.00
2019-01-24T20:49:23.135Z,22.10
2019-01-24T20:51:49.091Z,22.10
2019-01-24T20:54:15.061Z,22.10
2019-01-24T20:56:40.998Z,22.10
2019-01-24T20:59:06.993Z,22.10
2019-01-24T21:01:32.932Z,22.20
2019-01-24T21:03:58.886Z,22.20
2019-01-24T21:06:24.937Z,22.20
2019-01-24T21:08:50.890Z,22.10
2019-01-24T21:11:16.849Z,22.10
2019-01-24T21:13:42.797Z,22.00
2019-01-24T21:16:08.748Z,21.90
2019-01-24T21:18:34.682Z,21.80
2019-01-24T21:21:00.669Z,21.70
2019-01-24T21:23:28.370Z,21.70
2019-01-24T21:25:54.524Z,21.60
2019-01-24T21:28:20.489Z,21.50
2019-01-24T21:30:46.458Z,21.50
2019-01-24T21:33:12.425Z,21.40
2019-01-24T21:35:38.420Z,21.30
2019-01-24T21:38:04.503Z,21.30
2019-01-24T21:40:30.480Z,21.30
2019-01-24T21:42:56.471Z,21.30
2019-01-24T21:45:22.423Z,21.30
2019-01-24T21:47:48.416Z,21.30
2019-01-24T21:50:14.465Z,21.20
2019-01-24T21:52:40.421Z,21.20
2019-01-24T21:55:06.478Z,21.20
2019-01-24T21:57:32.466Z,21.10
2019-01-24T21:59:58.528Z,21.10
2019-01-24T22:02:24.468Z,21.10
2019-01-24T22:04:50.439Z,21.00
2019-01-24T22:07:16.381Z,21.00
2019-01-24T22:09:42.455Z,21.00
2019-01-24T22:12:08.511Z,21.00
2019-01-24T22:14:34.454Z,20.90
2019-01-24T22:17:00.430Z,20.90
2019-01-24T22:19:26.379Z,20.90
2019-01-24T22:21:52.350Z,20.80
2019-01-24T22:24:18.326Z,20.80
2019-01-24T22:26:44.256Z,20.70
2019-01-24T22:29:10.241Z,20.70
2019-01-24T22:31:36.183Z,20.70
2019-01-24T22:34:02.142Z,20.60
2019-01-24T22:36:28.210Z,20.60
2019-01-24T22:38:54.177Z,20.60
2019-01-24T22:41:20.234Z,20.50
2019-01-24T22:43:46.289Z,20.50
2019-01-24T22:46:12.279Z,20.50
2019-01-24T22:48:38.313Z,20.40
2019-01-24T22:51:04.299Z,20.40
2019-01-24T22:53:30.248Z,20.40
2019-01-24T22:55:56.219Z,20.40
2019-01-24T22:58:22.305Z,20.30
2019-01-24T23:00:52.380Z,20.20
2019-01-24T23:03:18.351Z,20.20
2019-01-24T23:05:44.308Z,20.20
2019-01-24T23:08:10.251Z,20.20
2019-01-24T23:10:36.181Z,20.10
2019-01-24T23:13:02.262Z,20.10
2019-01-24T23:15:28.221Z,20.10
2019-01-24T23:17:54.174Z,20.00
2019-01-24T23:20:20.135Z,20.00
2019-01-24T23:22:46.491Z,20.00
2019-01-24T23:25:12.441Z,20.00
2019-01-24T23:27:38.396Z,19.90
2019-01-24T23:30:04.345Z,19.90
2019-01-24T23:32:30.334Z,19.90
2019-01-24T23:34:56.355Z,19.90
2019-01-24T23:37:22.836Z,19.80
2019-01-24T23:39:52.473Z,19.80
2019-01-24T23:42:16.637Z,19.80
2019-01-24T23:44:42.888Z,19.80
2019-01-24T23:47:08.957Z,19.80
2019-01-24T23:49:34.913Z,19.80
2019-01-24T23:52:00.972Z,19.70
2019-01-24T23:54:26.942Z,19.70
2019-01-24T23:56:52.894Z,19.70
2019-01-24T23:59:18.865Z,19.70
